createdAt,value
2023-02-28T00:01:28.671Z,76.84
2023-02-28T00:04:01.254Z,76.65
2023-02-28T00:06:32.932Z,76.71
2023-02-28T00:09:08.019Z,76.63
2023-02-28T00:11:40.359Z,76.63
2023-02-28T00:14:13.277Z,76.65
2023-02-28T00:16:45.477Z,76.76
2023-02-28T00:19:18.143Z,76.84
2023-02-28T00:21:50.682Z,76.99
2023-02-28T00:24:22.584Z,76.88
2023-02-28T00:26:54.962Z,76.91
2023-02-28T00:29:29.114Z,77.21
2023-02-28T00:32:03.735Z,77.35
2023-02-28T00:34:40.544Z,77.21
2023-02-28T00:37:14.571Z,77.53
2023-02-28T00:39:58.069Z,77.50
2023-02-28T00:42:30.795Z,77.76
2023-02-28T00:45:05.827Z,77.48
2023-02-28T00:47:39.151Z,77.33
2023-02-28T00:50:15.019Z,77.67
2023-02-28T00:52:48.031Z,77.75
2023-02-28T00:55:20.626Z,77.65
2023-02-28T00:57:53.418Z,77.57
2023-02-28T01:00:26.935Z,77.48
2023-02-28T01:03:03.826Z,77.73
2023-02-28T01:05:35.793Z,77.80
2023-02-28T01:08:08.861Z,77.55
2023-02-28T01:10:50.049Z,77.46
2023-02-28T01:13:25.388Z,77.59
2023-02-28T01:15:59.892Z,77.62
2023-02-28T01:18:33.096Z,77.72
2023-02-28T01:21:08.573Z,77.45
2023-02-28T01:23:44.298Z,77.27
2023-02-28T01:26:19.057Z,77.58
2023-02-28T01:28:53.837Z,77.53
2023-02-28T01:31:26.229Z,77.32
2023-02-28T01:34:00.076Z,77.16
2023-02-28T01:36:33.910Z,77.54
2023-02-28T01:39:07.129Z,77.60
2023-02-28T01:41:40.775Z,77.73
2023-02-28T01:44:44.327Z,77.84
2023-02-28T01:47:17.379Z,77.52
2023-02-28T01:49:50.408Z,77.63
2023-02-28T01:52:25.381Z,77.85
2023-02-28T01:55:02.910Z,77.95
2023-02-28T01:57:41.860Z,77.78
2023-02-28T02:00:20.115Z,77.65
2023-02-28T02:02:56.399Z,77.48
2023-02-28T02:05:38.466Z,77.63
2023-02-28T02:08:14.251Z,78.05
2023-02-28T02:10:52.046Z,77.91
2023-02-28T02:13:42.563Z,77.72
2023-02-28T02:16:27.274Z,77.54
2023-02-28T02:19:17.152Z,77.74
2023-02-28T02:22:24.230Z,77.74
2023-02-28T02:25:20.810Z,78.00
2023-02-28T02:28:18.949Z,77.80
2023-02-28T02:31:33.641Z,77.98
2023-02-28T02:34:29.291Z,78.02
2023-02-28T02:37:34.909Z,78.13
2023-02-28T02:40:17.751Z,77.77
2023-02-28T02:42:58.517Z,78.15
2023-02-28T02:45:36.967Z,78.42
2023-02-28T02:48:14.316Z,78.27
2023-02-28T02:50:52.367Z,78.33
2023-02-28T02:53:31.300Z,78.73
2023-02-28T02:56:06.295Z,78.69
2023-02-28T02:58:44.283Z,78.35
2023-02-28T03:01:28.430Z,78.24
2023-02-28T03:04:03.634Z,78.34
2023-02-28T03:06:35.914Z,78.42
2023-02-28T03:09:07.789Z,78.29
2023-02-28T03:11:42.682Z,78.37
2023-02-28T03:14:33.319Z,78.39
2023-02-28T03:17:27.679Z,78.45
2023-02-28T03:20:09.043Z,78.22
2023-02-28T03:22:57.528Z,78.56
2023-02-28T03:25:41.300Z,78.41
2023-02-28T03:28:20.062Z,78.14
2023-02-28T03:30:59.980Z,78.68
2023-02-28T03:33:37.677Z,78.50
2023-02-28T03:36:16.001Z,78.76
2023-02-28T03:38:54.388Z,78.68
2023-02-28T03:41:30.354Z,78.59
2023-02-28T03:44:08.475Z,78.69
2023-02-28T03:46:43.448Z,78.44
2023-02-28T03:49:21.418Z,78.23
2023-02-28T03:51:56.203Z,78.74
2023-02-28T03:54:33.376Z,78.77
2023-02-28T03:57:13.364Z,79.41
2023-02-28T03:59:50.085Z,79.30
2023-02-28T04:02:22.909Z,78.95
2023-02-28T04:04:57.126Z,78.88
2023-02-28T04:07:30.909Z,78.82
2023-02-28T04:10:04.175Z,79.14
2023-02-28T04:12:36.253Z,78.98
2023-02-28T04:15:13.234Z,79.12
2023-02-28T04:17:44.526Z,78.76
2023-02-28T04:20:17.376Z,78.69
2023-02-28T04:22:50.423Z,78.84
2023-02-28T04:25:23.558Z,78.94
2023-02-28T04:27:56.607Z,78.98
2023-02-28T04:30:27.901Z,78.96
2023-02-28T04:33:00.511Z,79.01
2023-02-28T04:35:33.199Z,79.11
2023-02-28T04:38:10.447Z,79.04
2023-02-28T04:40:43.437Z,79.21
2023-02-28T04:43:16.287Z,79.10
2023-02-28T04:45:48.929Z,79.05
2023-02-28T04:48:22.220Z,79.08
2023-02-28T04:50:55.269Z,79.32
2023-02-28T04:53:27.526Z,79.49
2023-02-28T04:56:00.880Z,79.20
2023-02-28T04:58:32.974Z,79.03
2023-02-28T05:01:21.453Z,79.08
2023-02-28T05:03:57.421Z,79.22
2023-02-28T05:06:31.708Z,79.43
2023-02-28T05:09:03.944Z,79.53
2023-02-28T05:11:36.977Z,79.31
2023-02-28T05:14:16.244Z,79.54
2023-02-28T05:16:48.229Z,79.66
2023-02-28T05:19:25.220Z,79.50
2023-02-28T05:21:59.314Z,79.77
2023-02-28T05:24:37.307Z,79.88
2023-02-28T05:27:10.567Z,79.53
2023-02-28T05:29:43.846Z,79.79
2023-02-28T05:32:16.669Z,79.71
2023-02-28T05:34:49.512Z,79.64
2023-02-28T05:37:23.287Z,79.92
2023-02-28T05:39:55.542Z,80.24
2023-02-28T05:42:29.336Z,80.22
2023-02-28T05:45:02.057Z,79.95
2023-02-28T05:47:35.938Z,79.90
2023-02-28T05:50:12.795Z,79.78
2023-02-28T05:52:45.595Z,79.71
2023-02-28T05:55:17.870Z,79.85
2023-02-28T05:57:49.183Z,79.89
2023-02-28T06:00:23.256Z,79.95
2023-02-28T06:02:59.303Z,80.12
2023-02-28T06:05:32.091Z,79.95
2023-02-28T06:08:04.873Z,79.87
2023-02-28T06:10:38.561Z,79.97
2023-02-28T06:13:10.305Z,79.99
2023-02-28T06:15:43.760Z,80.05
2023-02-28T06:18:16.676Z,80.71
2023-02-28T06:20:55.698Z,81.26
2023-02-28T06:23:32.444Z,81.15
2023-02-28T06:26:03.723Z,81.25
2023-02-28T06:28:36.114Z,80.95
2023-02-28T06:31:16.586Z,81.67
2023-02-28T06:33:50.941Z,82.31
2023-02-28T06:36:24.206Z,82.54
2023-02-28T06:38:57.034Z,82.72
2023-02-28T06:41:29.176Z,83.10
2023-02-28T06:44:04.148Z,83.14
2023-02-28T06:46:38.866Z,83.22
2023-02-28T06:49:10.923Z,83.49
2023-02-28T06:51:45.521Z,83.56
2023-02-28T06:54:18.933Z,83.70
2023-02-28T06:56:50.877Z,83.75
2023-02-28T06:59:24.010Z,83.59
2023-02-28T07:01:57.176Z,83.62
2023-02-28T07:04:29.754Z,83.66
2023-02-28T07:07:01.433Z,83.73
2023-02-28T07:09:34.446Z,83.75
2023-02-28T07:12:05.994Z,83.52
2023-02-28T07:14:38.188Z,83.47
2023-02-28T07:17:12.753Z,83.42
2023-02-28T07:19:44.748Z,83.37
2023-02-28T07:22:20.001Z,83.47
2023-02-28T07:24:50.746Z,83.66
2023-02-28T07:27:26.876Z,83.41
2023-02-28T07:30:02.315Z,83.38
2023-02-28T07:32:34.701Z,83.29
2023-02-28T07:35:08.293Z,83.51
2023-02-28T07:37:42.027Z,83.64
2023-02-28T07:40:18.640Z,83.75
2023-02-28T07:42:51.056Z,83.86
2023-02-28T07:45:24.600Z,83.66
2023-02-28T07:47:57.451Z,83.69
2023-02-28T07:50:31.204Z,83.67
2023-02-28T07:53:04.749Z,83.98
2023-02-28T07:55:36.616Z,83.73
2023-02-28T07:58:09.963Z,83.55
2023-02-28T08:00:41.488Z,83.61
2023-02-28T08:03:15.083Z,83.65
2023-02-28T08:05:49.168Z,83.73
2023-02-28T08:08:21.361Z,83.83
2023-02-28T08:10:52.255Z,83.58
2023-02-28T08:13:27.247Z,83.70
2023-02-28T08:15:58.375Z,83.69
2023-02-28T08:18:30.989Z,83.61
2023-02-28T08:21:06.868Z,83.59
2023-02-28T08:23:39.363Z,83.51
2023-02-28T08:26:12.262Z,83.60
2023-02-28T08:28:43.883Z,83.57
2023-02-28T08:31:17.725Z,83.41
2023-02-28T08:33:52.797Z,83.58
2023-02-28T08:36:42.555Z,83.49
2023-02-28T08:39:14.169Z,83.67
2023-02-28T08:41:47.965Z,83.65
2023-02-28T08:44:21.952Z,83.63
2023-02-28T08:46:55.294Z,83.58
2023-02-28T08:49:27.206Z,83.48
2023-02-28T08:51:58.691Z,83.23
2023-02-28T08:54:32.779Z,82.88
2023-02-28T08:57:04.962Z,82.80
2023-02-28T08:59:37.136Z,82.43
2023-02-28T09:02:13.918Z,82.46
2023-02-28T09:04:48.206Z,82.30
2023-02-28T09:07:21.314Z,82.55
2023-02-28T09:09:55.118Z,82.40
2023-02-28T09:12:28.646Z,82.26
2023-02-28T09:15:01.082Z,82.05
2023-02-28T09:17:33.015Z,81.86
2023-02-28T09:20:07.405Z,82.07
2023-02-28T09:22:39.691Z,81.68
2023-02-28T09:25:12.376Z,81.57
2023-02-28T09:27:46.536Z,81.43
2023-02-28T09:30:31.050Z,81.19
2023-02-28T09:33:03.233Z,80.84
2023-02-28T09:35:38.091Z,80.42
2023-02-28T09:38:10.753Z,80.11
2023-02-28T09:40:49.129Z,79.47
2023-02-28T09:43:23.590Z,79.32
2023-02-28T09:46:01.888Z,78.35
2023-02-28T09:48:41.366Z,77.71
2023-02-28T09:51:30.474Z,77.09
2023-02-28T09:54:02.572Z,75.43
2023-02-28T09:56:39.494Z,75.39
2023-02-28T09:59:20.652Z,74.76
2023-02-28T10:01:59.798Z,74.67
2023-02-28T10:04:46.631Z,74.07
2023-02-28T10:07:40.324Z,72.78
2023-02-28T10:10:30.829Z,72.04
2023-02-28T10:13:05.920Z,72.13
2023-02-28T10:15:39.772Z,71.60
2023-02-28T10:18:16.825Z,71.72
2023-02-28T10:20:51.003Z,71.20
2023-02-28T10:23:27.420Z,71.13
2023-02-28T10:26:03.417Z,71.03
2023-02-28T10:28:35.374Z,71.20
2023-02-28T10:31:08.462Z,70.70
2023-02-28T10:33:41.288Z,70.32
2023-02-28T10:36:17.733Z,70.34
2023-02-28T10:38:51.418Z,70.50
2023-02-28T10:41:35.290Z,70.37
2023-02-28T10:44:28.492Z,70.02
2023-02-28T10:47:01.701Z,70.01
2023-02-28T10:49:32.449Z,69.80
2023-02-28T10:52:04.308Z,69.59
2023-02-28T10:54:38.441Z,69.44
2023-02-28T10:57:19.437Z,68.90
2023-02-28T11:00:07.191Z,69.01
2023-02-28T11:02:41.719Z,69.27
2023-02-28T11:05:32.852Z,68.45
2023-02-28T11:08:13.429Z,68.36
2023-02-28T11:10:55.495Z,67.74
2023-02-28T11:13:32.255Z,67.66
2023-02-28T11:16:06.077Z,66.95
2023-02-28T11:18:43.528Z,66.96
2023-02-28T11:21:20.655Z,66.79
2023-02-28T11:23:59.419Z,66.49
2023-02-28T11:26:44.495Z,65.96
2023-02-28T11:29:25.135Z,66.22
2023-02-28T11:32:19.353Z,66.49
2023-02-28T11:35:04.509Z,66.27
2023-02-28T11:37:37.142Z,66.24
2023-02-28T11:40:18.040Z,66.23
2023-02-28T11:43:03.965Z,66.51
2023-02-28T11:45:52.709Z,66.07
2023-02-28T11:48:30.831Z,65.90
2023-02-28T11:51:12.897Z,65.66
2023-02-28T11:54:05.157Z,65.56
2023-02-28T11:56:41.123Z,65.48
2023-02-28T11:59:44.541Z,65.76
2023-02-28T12:02:35.317Z,65.40
2023-02-28T12:05:27.125Z,65.48
2023-02-28T12:08:13.452Z,65.19
2023-02-28T12:11:03.147Z,65.28
2023-02-28T12:13:48.894Z,65.14
2023-02-28T12:16:48.252Z,65.06
2023-02-28T12:19:26.343Z,64.70
2023-02-28T12:22:19.642Z,65.08
2023-02-28T12:25:14.663Z,64.79
2023-02-28T12:27:51.564Z,64.53
2023-02-28T12:30:30.507Z,63.83
2023-02-28T12:33:10.389Z,63.13
2023-02-28T12:35:49.110Z,62.03
2023-02-28T12:38:23.570Z,60.40
2023-02-28T12:41:03.110Z,59.70
2023-02-28T12:43:39.758Z,59.94
2023-02-28T12:46:14.798Z,60.85
2023-02-28T12:48:49.783Z,60.72
2023-02-28T12:51:23.519Z,60.64
2023-02-28T12:54:13.054Z,58.92
2023-02-28T12:56:52.591Z,57.54
2023-02-28T12:59:32.512Z,57.71
2023-02-28T13:02:37.582Z,58.07
2023-02-28T13:05:52.543Z,59.16
2023-02-28T13:09:09.722Z,59.89
2023-02-28T13:11:47.744Z,60.06
2023-02-28T13:14:39.180Z,60.13
2023-02-28T13:17:37.700Z,59.45
2023-02-28T13:20:20.158Z,59.23
2023-02-28T13:22:53.644Z,59.39
2023-02-28T13:25:55.827Z,59.56
2023-02-28T13:29:09.321Z,59.32
2023-02-28T13:32:11.965Z,60.11
2023-02-28T13:35:06.734Z,59.88
2023-02-28T13:37:43.907Z,59.56
2023-02-28T13:40:37.709Z,59.33
2023-02-28T13:43:13.585Z,59.83
2023-02-28T13:46:13.034Z,59.72
2023-02-28T13:48:44.545Z,60.27
2023-02-28T13:51:46.958Z,60.35
2023-02-28T13:54:31.951Z,60.01
2023-02-28T13:57:26.761Z,59.26
2023-02-28T14:00:17.707Z,59.25
2023-02-28T14:03:22.046Z,59.22
2023-02-28T14:06:13.057Z,59.50
2023-02-28T14:08:55.900Z,59.64
2023-02-28T14:11:33.154Z,59.43
2023-02-28T14:14:07.511Z,59.35
2023-02-28T14:16:48.111Z,59.67
2023-02-28T14:19:26.050Z,59.64
2023-02-28T14:22:13.775Z,59.80
2023-02-28T14:25:22.959Z,59.90
2023-02-28T14:28:08.820Z,59.36
2023-02-28T14:31:03.852Z,58.23
2023-02-28T14:33:59.310Z,57.31
2023-02-28T14:36:36.962Z,58.26
2023-02-28T14:39:16.770Z,58.67
2023-02-28T14:41:49.786Z,59.50
2023-02-28T14:44:24.008Z,59.22
2023-02-28T14:46:58.749Z,58.18
2023-02-28T14:49:32.876Z,57.98
2023-02-28T14:52:16.893Z,58.03
2023-02-28T14:54:53.438Z,58.15
2023-02-28T14:57:27.528Z,58.38
2023-02-28T15:00:11.068Z,58.65
2023-02-28T15:02:44.096Z,58.37
2023-02-28T15:05:34.191Z,58.39
2023-02-28T15:08:13.059Z,58.53
2023-02-28T15:10:47.868Z,58.71
2023-02-28T15:13:24.101Z,58.56
2023-02-28T15:16:03.024Z,58.86
2023-02-28T15:18:44.921Z,59.01
2023-02-28T15:21:19.112Z,59.14
2023-02-28T15:23:55.341Z,59.41
2023-02-28T15:26:34.537Z,59.56
2023-02-28T15:29:10.924Z,59.62
2023-02-28T15:31:56.941Z,59.40
2023-02-28T15:34:44.101Z,59.65
2023-02-28T15:37:35.368Z,59.84
2023-02-28T15:40:16.641Z,59.57
2023-02-28T15:43:05.872Z,59.97
2023-02-28T15:45:42.471Z,60.15
2023-02-28T15:48:22.432Z,60.41
2023-02-28T15:50:57.810Z,60.73
2023-02-28T15:53:35.333Z,61.12
2023-02-28T15:56:28.361Z,61.07
2023-02-28T15:59:04.224Z,61.52
2023-02-28T16:01:39.141Z,61.45
2023-02-28T16:04:19.580Z,61.84
2023-02-28T16:07:05.062Z,61.77
2023-02-28T16:09:43.133Z,62.56
2023-02-28T16:12:15.188Z,62.63
2023-02-28T16:14:49.143Z,62.90
2023-02-28T16:17:25.755Z,63.38
2023-02-28T16:19:59.505Z,63.38
2023-02-28T16:22:31.748Z,63.56
2023-02-28T16:25:04.845Z,63.51
2023-02-28T16:27:41.043Z,63.69
2023-02-28T16:30:23.983Z,63.86
2023-02-28T16:32:58.832Z,64.02
2023-02-28T16:35:31.916Z,63.97
2023-02-28T16:38:04.441Z,64.25
2023-02-28T16:40:39.590Z,64.10
2023-02-28T16:43:27.035Z,64.07
2023-02-28T16:46:01.556Z,64.50
2023-02-28T16:48:33.836Z,64.89
2023-02-28T16:51:07.836Z,65.01
2023-02-28T16:53:41.706Z,64.92
2023-02-28T16:56:19.706Z,65.45
2023-02-28T16:58:54.109Z,64.90
2023-02-28T17:01:27.640Z,65.39
2023-02-28T17:04:01.168Z,65.57
2023-02-28T17:06:34.256Z,65.72
2023-02-28T17:09:06.895Z,65.60
2023-02-28T17:11:40.958Z,65.44
2023-02-28T17:14:15.335Z,65.75
2023-02-28T17:16:48.222Z,66.02
2023-02-28T17:19:23.612Z,65.89
2023-02-28T17:21:55.039Z,65.87
2023-02-28T17:24:31.286Z,65.90
2023-02-28T17:27:04.526Z,66.28
2023-02-28T17:29:36.558Z,66.42
2023-02-28T17:32:17.927Z,66.34
2023-02-28T17:34:51.290Z,66.66
2023-02-28T17:37:22.669Z,66.51
2023-02-28T17:39:55.542Z,66.65
2023-02-28T17:42:27.442Z,67.02
2023-02-28T17:44:59.287Z,66.98
2023-02-28T17:47:31.987Z,67.43
2023-02-28T17:50:04.888Z,67.20
2023-02-28T17:52:37.233Z,67.63
2023-02-28T17:55:10.776Z,67.71
2023-02-28T17:57:44.578Z,67.77
2023-02-28T18:00:25.984Z,68.33
2023-02-28T18:02:57.101Z,68.03
2023-02-28T18:05:30.168Z,68.36
2023-02-28T18:08:02.425Z,68.49
2023-02-28T18:10:35.009Z,68.65
2023-02-28T18:13:07.801Z,68.91
2023-02-28T18:15:40.638Z,69.20
2023-02-28T18:18:16.627Z,69.34
2023-02-28T18:20:50.691Z,69.26
2023-02-28T18:23:22.556Z,69.20
2023-02-28T18:25:56.655Z,69.40
2023-02-28T18:28:29.291Z,69.59
2023-02-28T18:31:06.773Z,69.86
2023-02-28T18:33:39.268Z,70.11
2023-02-28T18:36:11.946Z,70.20
2023-02-28T18:38:44.201Z,70.21
2023-02-28T18:41:15.755Z,70.32
2023-02-28T18:43:48.468Z,70.76
2023-02-28T18:46:23.361Z,70.60
2023-02-28T18:48:55.344Z,70.81
2023-02-28T18:51:28.862Z,70.73
2023-02-28T18:54:01.521Z,70.92
2023-02-28T18:56:33.258Z,70.94
2023-02-28T18:59:07.110Z,71.20
2023-02-28T19:01:38.284Z,71.19
2023-02-28T19:04:13.618Z,71.38
2023-02-28T19:06:46.770Z,71.36
2023-02-28T19:09:22.976Z,71.44
2023-02-28T19:11:53.398Z,71.49
2023-02-28T19:14:24.431Z,71.24
2023-02-28T19:16:57.502Z,71.67
2023-02-28T19:19:28.625Z,71.75
2023-02-28T19:22:00.668Z,71.55
2023-02-28T19:24:34.692Z,71.68
2023-02-28T19:27:06.778Z,71.64
2023-02-28T19:29:39.377Z,71.64
2023-02-28T19:32:12.019Z,71.89
2023-02-28T19:34:46.049Z,71.80
2023-02-28T19:37:17.427Z,71.90
2023-02-28T19:39:49.878Z,72.11
2023-02-28T19:42:21.269Z,72.22
2023-02-28T19:44:53.420Z,72.14
2023-02-28T19:47:28.554Z,72.44
2023-02-28T19:50:00.940Z,72.35
2023-02-28T19:52:31.464Z,72.74
2023-02-28T19:55:05.508Z,72.65
2023-02-28T19:57:37.275Z,72.65
2023-02-28T20:00:15.411Z,72.56
2023-02-28T20:02:48.469Z,72.57
2023-02-28T20:05:23.225Z,72.96
2023-02-28T20:07:55.241Z,72.68
2023-02-28T20:10:26.896Z,72.87
2023-02-28T20:13:02.161Z,73.08
2023-02-28T20:15:34.914Z,73.00
2023-02-28T20:18:08.024Z,73.07
2023-02-28T20:20:41.693Z,73.28
2023-02-28T20:23:13.434Z,73.24
2023-02-28T20:25:46.093Z,73.30
2023-02-28T20:28:19.022Z,73.36
2023-02-28T20:30:51.107Z,73.66
2023-02-28T20:33:22.017Z,73.70
2023-02-28T20:36:01.074Z,73.69
2023-02-28T20:38:33.396Z,73.52
2023-02-28T20:41:07.224Z,73.73
2023-02-28T20:43:40.438Z,73.61
2023-02-28T20:46:12.167Z,73.61
2023-02-28T20:48:46.669Z,73.95
2023-02-28T20:51:18.250Z,74.02
2023-02-28T20:53:51.527Z,74.21
2023-02-28T20:56:24.968Z,74.20
2023-02-28T20:58:57.896Z,74.35
2023-02-28T21:01:30.184Z,74.32
2023-02-28T21:04:03.142Z,74.36
2023-02-28T21:06:36.774Z,74.39
2023-02-28T21:09:09.540Z,74.47
2023-02-28T21:11:43.977Z,74.52
2023-02-28T21:14:18.180Z,74.63
2023-02-28T21:16:49.839Z,74.70
2023-02-28T21:19:22.746Z,74.91
2023-02-28T21:21:56.618Z,75.11
2023-02-28T21:24:29.689Z,75.20
2023-02-28T21:27:02.668Z,75.20
2023-02-28T21:29:34.415Z,75.18
2023-02-28T21:32:07.811Z,75.43
2023-02-28T21:34:39.893Z,75.39
2023-02-28T21:37:11.694Z,75.32
2023-02-28T21:39:42.809Z,75.58
2023-02-28T21:42:14.952Z,75.54
2023-02-28T21:44:48.856Z,75.54
2023-02-28T21:47:26.111Z,75.69
2023-02-28T21:49:58.974Z,75.78
2023-02-28T21:52:30.911Z,75.95
2023-02-28T21:55:05.063Z,76.03
2023-02-28T21:57:39.619Z,75.92
2023-02-28T22:00:17.137Z,75.83
2023-02-28T22:02:50.100Z,75.74
2023-02-28T22:05:23.594Z,75.93
2023-02-28T22:08:01.092Z,76.24
2023-02-28T22:10:42.270Z,76.10
2023-02-28T22:13:13.490Z,76.14
2023-02-28T22:15:45.038Z,76.17
2023-02-28T22:18:17.274Z,76.25
2023-02-28T22:20:56.358Z,76.17
2023-02-28T22:23:26.956Z,76.06
2023-02-28T22:26:02.726Z,76.27
2023-02-28T22:28:36.150Z,76.11
2023-02-28T22:31:18.190Z,76.09
2023-02-28T22:33:52.393Z,76.31
2023-02-28T22:36:23.921Z,76.59
2023-02-28T22:38:55.487Z,76.78
2023-02-28T22:41:27.688Z,76.75
2023-02-28T22:44:00.981Z,76.55
2023-02-28T22:46:35.915Z,76.52
2023-02-28T22:49:08.326Z,76.72
2023-02-28T22:51:40.627Z,76.70
2023-02-28T22:54:11.560Z,76.42
2023-02-28T22:56:43.719Z,76.56
2023-02-28T22:59:17.219Z,76.77
2023-02-28T23:01:49.674Z,76.69
2023-02-28T23:04:25.501Z,76.70
2023-02-28T23:06:58.592Z,76.91
2023-02-28T23:09:30.185Z,76.89
2023-02-28T23:12:02.780Z,76.94
2023-02-28T23:14:36.230Z,77.05
2023-02-28T23:17:09.767Z,77.25
2023-02-28T23:19:42.562Z,77.24
2023-02-28T23:22:16.301Z,77.14
2023-02-28T23:24:47.331Z,77.08
2023-02-28T23:27:19.263Z,77.10
2023-02-28T23:29:50.838Z,77.10
2023-02-28T23:32:21.547Z,77.08
2023-02-28T23:34:56.189Z,77.23
2023-02-28T23:37:32.539Z,77.41
2023-02-28T23:40:08.172Z,77.43
2023-02-28T23:42:41.209Z,77.51
2023-02-28T23:45:14.696Z,77.63
2023-02-28T23:47:47.462Z,77.54
2023-02-28T23:50:21.036Z,77.63
2023-02-28T23:52:56.380Z,77.45
2023-02-28T23:55:30.588Z,77.44
2023-02-28T23:58:03.869Z,77.36
